Time;durP1;ratioP1;P1;durP2;ratioP2;P2;SDS_P1;SDS_P2;PMS_P1;PMS_P2;Temp;Humidity;BMP_temperature;BMP_pressure;BME280_temperature;BME280_humidity;BME280_pressure;Samples;Min_cycle;Max_cycle;Signal;HPM_P1;HPM_P2
2022/05/03 00:02:19;;;;;;;13.90;8.18;;;9.70;99.90;;;;;;5117389;27;20036;-63
2022/05/03 00:04:47;;;;;;;14.52;9.43;;;9.60;99.90;;;;;;5101124;28;20064;-62
2022/05/03 00:07:39;;;;;;;14.68;9.18;;;9.50;99.90;;;;;;5102980;28;20028;-62
2022/05/03 00:10:12;;;;;;;13.80;8.85;;;9.40;99.90;;;;;;5121586;28;20031;-61
2022/05/03 00:12:42;;;;;;;15.73;8.98;;;9.30;99.90;;;;;;5121238;27;20054;-64
2022/05/03 00:15:09;;;;;;;12.02;8.10;;;9.20;99.90;;;;;;5119409;28;20042;-62
2022/05/03 00:17:35;;;;;;;13.40;8.70;;;9.20;99.90;;;;;;5113643;27;20467;-63
2022/05/03 00:20:01;;;;;;;;;;;9.10;99.90;;;;;;5106000;28;20803;-62
2022/05/03 00:22:28;;;;;;;11.85;8.10;;;9.10;99.90;;;;;;5106302;27;20387;-63
2022/05/03 00:24:55;;;;;;;14.23;9.23;;;9.00;99.90;;;;;;5106870;28;20142;-64
2022/05/03 00:27:24;;;;;;;15.73;8.63;;;9.10;99.90;;;;;;5106528;28;20040;-62
2022/05/03 00:29:52;;;;;;;11.13;8.10;;;9.00;99.90;;;;;;5106534;28;20043;-62
2022/05/03 00:32:22;;;;;;;13.70;8.98;;;9.00;99.90;;;;;;5104893;28;20039;-64
2022/05/03 00:34:49;;;;;;;21.23;9.30;;;9.00;99.90;;;;;;5106531;28;20126;-62
2022/05/03 00:37:16;;;;;;;14.35;9.05;;;8.90;99.90;;;;;;5103462;27;20127;-61
2022/05/03 00:39:42;;;;;;;14.20;8.45;;;8.90;99.90;;;;;;5084651;28;20074;-63
2022/05/03 00:42:13;;;;;;;12.23;7.93;;;8.70;99.90;;;;;;5105165;28;20035;-62
2022/05/03 00:45:01;;;;;;;16.67;9.70;;;8.70;99.90;;;;;;5106406;28;20636;-64
2022/05/03 00:47:49;;;;;;;17.08;9.82;;;8.70;99.90;;;;;;5101286;28;20079;-63
2022/05/03 00:50:33;;;;;;;16.17;9.30;;;8.80;99.90;;;;;;5106431;28;20071;-60
2022/05/03 00:53:24;;;;;;;14.70;8.85;;;8.80;99.90;;;;;;5104653;28;20057;-62
2022/05/03 00:56:04;;;;;;;17.30;9.93;;;8.70;99.90;;;;;;5100690;28;20499;-62
2022/05/03 00:58:47;;;;;;;16.00;9.30;;;8.70;99.90;;;;;;5104110;28;20388;-63
2022/05/03 01:01:35;;;;;;;14.20;9.35;;;8.70;99.90;;;;;;5103919;28;20063;-62
2022/05/03 01:04:10;;;;;;;15.60;9.80;;;8.70;99.90;;;;;;5102859;28;20131;-62
2022/05/03 01:06:59;;;;;;;14.40;9.27;;;8.70;99.90;;;;;;5084308;28;20044;-64
2022/05/03 01:09:38;;;;;;;13.80;8.10;;;8.70;99.90;;;;;;5104144;28;20046;-63
2022/05/03 01:12:23;;;;;;;14.50;9.48;;;8.60;99.90;;;;;;5104942;27;20047;-63
2022/05/03 01:15:04;;;;;;;14.18;9.55;;;8.60;99.90;;;;;;5105242;28;20085;-64
2022/05/03 01:17:42;;;;;;;15.20;8.65;;;8.60;99.90;;;;;;5105088;28;20050;-63
2022/05/03 01:20:10;;;;;;;15.77;8.98;;;8.60;99.90;;;;;;5086162;28;20047;-63
2022/05/03 01:22:54;;;;;;;19.38;10.30;;;8.70;99.90;;;;;;5088547;28;20071;-63
2022/05/03 01:25:54;;;;;;;13.65;8.70;;;8.70;99.90;;;;;;5088195;28;20549;-63
2022/05/03 01:28:57;;;;;;;15.98;8.32;;;8.70;99.90;;;;;;5104715;28;20046;-63
2022/05/03 01:31:24;;;;;;;14.02;8.10;;;8.80;99.90;;;;;;5103455;28;20043;-63
2022/05/03 01:33:50;;;;;;;14.77;9.55;;;8.70;99.90;;;;;;5104700;28;20450;-63
2022/05/03 01:36:34;;;;;;;15.57;9.13;;;8.70;99.90;;;;;;5105309;28;20039;-63
2022/05/03 01:39:18;;;;;;;12.30;8.95;;;8.70;99.90;;;;;;5101513;28;20092;-63
2022/05/03 01:41:56;;;;;;;12.15;8.65;;;8.70;99.90;;;;;;5100304;28;20089;-63
2022/05/03 01:44:33;;;;;;;17.27;9.25;;;8.80;99.90;;;;;;5104401;28;20049;-63
2022/05/03 01:47:25;;;;;;;16.88;8.90;;;8.80;99.90;;;;;;5104613;28;20040;-63
2022/05/03 01:50:18;;;;;;;17.55;9.88;;;8.70;99.90;;;;;;5106839;28;20053;-63
2022/05/03 01:53:12;;;;;;;13.13;8.77;;;8.70;99.90;;;;;;5105055;28;20032;-63
2022/05/03 01:55:37;;;;;;;13.75;9.20;;;8.80;99.90;;;;;;5098195;28;20112;-63
2022/05/03 01:58:03;;;;;;;;;;;8.80;99.90;;;;;;5105406;28;20632;-63
2022/05/03 02:00:31;;;;;;;14.63;9.90;;;8.80;99.90;;;;;;5102823;28;19916;-61
2022/05/03 02:03:00;;;;;;;18.88;9.48;;;8.80;99.90;;;;;;5105370;28;20096;-64
2022/05/03 02:05:34;;;;;;;19.63;9.75;;;8.80;99.90;;;;;;5105566;28;20088;-63
2022/05/03 02:08:01;;;;;;;12.02;9.05;;;8.80;99.90;;;;;;5094088;28;20032;-64
2022/05/03 02:10:42;;;;;;;15.68;9.38;;;8.80;99.90;;;;;;5104222;28;20545;-62
2022/05/03 02:13:28;;;;;;;14.45;8.85;;;8.80;99.90;;;;;;5104353;28;20605;-63
2022/05/03 02:16:03;;;;;;;17.13;9.80;;;8.80;99.90;;;;;;5103588;28;20095;-63
2022/05/03 02:18:59;;;;;;;20.98;9.30;;;8.80;99.90;;;;;;5102970;28;20035;-63
2022/05/03 02:21:37;;;;;;;12.73;9.03;;;8.70;99.90;;;;;;5103189;28;20044;-63
2022/05/03 02:24:06;;;;;;;14.65;9.15;;;8.70;99.90;;;;;;5103565;28;20572;-63
2022/05/03 02:26:54;;;;;;;16.70;9.60;;;8.70;99.90;;;;;;5103508;28;20036;-63
2022/05/03 02:29:30;;;;;;;16.98;10.20;;;8.60;99.90;;;;;;5104420;28;20089;-64
2022/05/03 02:32:05;;;;;;;15.95;10.23;;;8.50;99.90;;;;;;5102200;28;20091;-62
2022/05/03 02:34:53;;;;;;;14.07;9.50;;;8.50;99.90;;;;;;5103757;28;20054;-64
2022/05/03 02:37:24;;;;;;;16.42;10.27;;;8.40;99.90;;;;;;5101137;28;20063;-63
2022/05/03 02:39:52;;;;;;;16.63;9.35;;;8.40;99.90;;;;;;5103834;28;20043;-62
2022/05/03 02:42:20;;;;;;;20.73;10.48;;;8.30;99.90;;;;;;5103095;28;20380;-62
2022/05/03 02:44:48;;;;;;;14.70;9.63;;;8.30;99.90;;;;;;5103793;28;21152;-62
2022/05/03 02:47:31;;;;;;;14.02;9.30;;;8.20;99.90;;;;;;5103108;28;20071;-62
2022/05/03 02:50:08;;;;;;;15.30;9.60;;;8.20;99.90;;;;;;5100949;28;20085;-62
2022/05/03 02:52:58;;;;;;;23.60;9.57;;;8.20;99.90;;;;;;5096324;28;20074;-62
2022/05/03 02:55:32;;;;;;;17.27;9.75;;;8.10;99.90;;;;;;5104375;28;20058;-62
2022/05/03 02:58:38;;;;;;;12.48;8.98;;;8.10;99.90;;;;;;5104203;28;20043;-62
2022/05/03 03:01:48;;;;;;;12.73;9.45;;;8.00;99.90;;;;;;5101105;28;20444;-62
2022/05/03 03:04:36;;;;;;;22.27;9.63;;;7.90;99.90;;;;;;5103507;28;20071;-62
2022/05/03 03:07:04;;;;;;;16.02;9.18;;;7.90;99.90;;;;;;5100077;28;20177;-62
2022/05/03 03:09:41;;;;;;;17.00;9.77;;;7.90;99.90;;;;;;5103222;28;20035;-64
2022/05/03 03:12:33;;;;;;;19.38;9.15;;;7.90;99.90;;;;;;5103907;28;20046;-64
2022/05/03 03:15:09;;;;;;;18.88;10.13;;;7.90;99.90;;;;;;5104045;28;20040;-64
2022/05/03 03:17:39;;;;;;;15.60;9.82;;;7.90;99.90;;;;;;5103902;28;20039;-64
2022/05/03 03:20:09;;;;;;;18.00;10.13;;;7.80;99.90;;;;;;5103617;28;20051;-64
2022/05/03 03:22:36;;;;;;;17.88;10.70;;;7.90;99.90;;;;;;5103926;28;20044;-64
2022/05/03 03:25:04;;;;;;;16.45;9.20;;;7.80;99.90;;;;;;5103962;28;20093;-63
2022/05/03 03:27:34;;;;;;;14.20;9.68;;;7.80;99.90;;;;;;5104294;28;20133;-64
2022/05/03 03:30:03;;;;;;;22.27;10.43;;;7.90;99.90;;;;;;5103949;28;20031;-64
2022/05/03 03:32:29;;;;;;;20.63;10.57;;;7.90;99.90;;;;;;5102959;28;20047;-64
2022/05/03 03:34:58;;;;;;;13.38;8.90;;;7.90;99.90;;;;;;5105099;28;20104;-64
2022/05/03 03:37:25;;;;;;;15.25;10.68;;;7.90;99.90;;;;;;5098866;28;20044;-65
2022/05/03 03:39:51;;;;;;;15.10;10.70;;;7.90;99.90;;;;;;5098720;28;20067;-64
2022/05/03 03:42:17;;;;;;;;;;;7.90;99.90;;;;;;5104190;28;20071;-65
2022/05/03 03:44:42;;;;;;;16.00;9.90;;;7.90;99.90;;;;;;5104223;28;19917;-65
2022/05/03 03:47:09;;;;;;;20.08;11.05;;;8.00;99.90;;;;;;5102771;28;20050;-65
2022/05/03 03:49:35;;;;;;;14.30;10.55;;;7.90;99.90;;;;;;5103685;28;20043;-64
2022/05/03 03:52:01;;;;;;;;;;;8.00;99.90;;;;;;5103522;28;20115;-65
2022/05/03 03:54:27;;;;;;;17.33;9.88;;;8.00;99.90;;;;;;5101487;27;19915;-65
2022/05/03 03:56:53;;;;;;;;;;;8.10;99.90;;;;;;5111168;28;20042;-63
2022/05/03 03:59:19;;;;;;;20.30;10.27;;;8.10;99.90;;;;;;5108666;28;19922;-65
2022/05/03 04:01:45;;;;;;;;;;;8.10;99.90;;;;;;5106283;27;20048;-64
2022/05/03 04:04:12;;;;;;;18.35;9.93;;;8.10;99.90;;;;;;5097302;28;20397;-64
2022/05/03 04:06:38;;;;;;;14.82;9.80;;;8.10;99.90;;;;;;5101126;28;20051;-64
2022/05/03 04:09:04;;;;;;;18.15;10.73;;;8.10;99.90;;;;;;5100973;28;20043;-64
2022/05/03 04:11:47;;;;;;;14.27;9.93;;;8.20;99.90;;;;;;5102054;28;20115;-64
2022/05/03 04:14:13;;;;;;;17.08;9.75;;;8.20;99.90;;;;;;5096059;28;20032;-64
2022/05/03 04:16:40;;;;;;;15.45;9.95;;;8.10;99.90;;;;;;5100353;28;20088;-64
2022/05/03 04:19:05;;;;;;;15.43;10.13;;;8.20;99.90;;;;;;5098423;28;20039;-64
2022/05/03 04:21:31;;;;;;;;;;;8.20;99.90;;;;;;5101637;28;20038;-64
2022/05/03 04:23:56;;;;;;;16.98;10.55;;;8.30;99.90;;;;;;5105370;28;19916;-63
2022/05/03 04:26:22;;;;;;;;;;;8.30;99.90;;;;;;5105312;28;20042;-65
2022/05/03 04:28:48;;;;;;;15.73;9.30;;;8.40;99.90;;;;;;5103501;28;19920;-64
2022/05/03 04:31:13;;;;;;;19.50;10.23;;;8.40;99.90;;;;;;5104451;28;20035;-64
2022/05/03 04:33:39;;;;;;;;;;;8.40;99.90;;;;;;5107265;28;20058;-67
2022/05/03 04:36:05;;;;;;;13.32;9.15;;;8.40;99.90;;;;;;5106174;28;20410;-67
2022/05/03 04:38:30;;;;;;;;;;;8.40;99.90;;;;;;5103413;28;20035;-68
2022/05/03 04:41:03;;;;;;;13.65;9.32;;;8.40;99.90;;;;;;5102300;28;19969;-66
2022/05/03 04:43:29;;;;;;;15.73;9.65;;;8.40;99.90;;;;;;5102352;28;20062;-66
2022/05/03 04:45:54;;;;;;;;;;;8.40;99.90;;;;;;5105146;28;20433;-64
2022/05/03 04:48:20;;;;;;;15.98;9.27;;;8.40;99.90;;;;;;5099208;28;19916;-66
2022/05/03 04:50:47;;;;;;;;;;;8.40;99.90;;;;;;5105798;28;20042;-65
2022/05/03 04:53:16;;;;;;;12.57;8.75;;;8.40;99.90;;;;;;5104048;28;19927;-66
2022/05/03 04:55:42;;;;;;;14.73;9.32;;;8.50;99.90;;;;;;5102879;28;20055;-66
2022/05/03 04:58:08;;;;;;;12.38;9.05;;;8.50;99.90;;;;;;5105108;28;20039;-67
2022/05/03 05:00:34;;;;;;;;;;;8.50;99.90;;;;;;5103505;28;20151;-67
2022/05/03 05:02:59;;;;;;;15.02;9.63;;;8.40;99.90;;;;;;5104914;28;20399;-64
2022/05/03 05:05:25;;;;;;;;;;;8.30;99.90;;;;;;5103214;28;20448;-64
2022/05/03 05:07:51;;;;;;;11.77;9.00;;;8.30;99.90;;;;;;5100683;28;19916;-65
2022/05/03 05:10:27;;;;;;;;;;;8.30;99.90;;;;;;5099599;28;20062;-64
2022/05/03 05:12:55;;;;;;;18.73;9.40;;;8.30;99.90;;;;;;5104169;28;19923;-64
2022/05/03 05:15:25;;;;;;;17.25;10.98;;;8.40;99.90;;;;;;5097504;28;20067;-65
2022/05/03 05:17:51;;;;;;;15.45;10.30;;;8.30;99.90;;;;;;5103901;28;20032;-65
2022/05/03 05:20:18;;;;;;;17.55;10.38;;;8.30;99.90;;;;;;5104697;28;20035;-65
2022/05/03 05:22:44;;;;;;;18.05;11.38;;;8.40;99.90;;;;;;5104929;28;20047;-66
2022/05/03 05:25:09;;;;;;;16.95;10.10;;;8.40;99.90;;;;;;5104621;27;20040;-65
2022/05/03 05:27:35;;;;;;;;;;;8.50;99.90;;;;;;5105443;28;20462;-67
2022/05/03 05:30:02;;;;;;;17.67;10.20;;;8.60;99.90;;;;;;5104083;28;19916;-63
2022/05/03 05:32:32;;;;;;;18.63;11.57;;;8.50;99.90;;;;;;5103641;27;20043;-64
2022/05/03 05:35:00;;;;;;;17.25;10.32;;;8.60;99.90;;;;;;5112192;27;20476;-63
2022/05/03 05:37:32;;;;;;;17.13;10.20;;;8.70;99.90;;;;;;5088440;28;20040;-63
2022/05/03 05:40:00;;;;;;;17.02;10.02;;;8.90;99.90;;;;;;5092661;28;20036;-64
2022/05/03 05:42:32;;;;;;;15.00;9.05;;;9.00;99.90;;;;;;5087262;28;20062;-64
2022/05/03 05:45:03;;;;;;;15.02;8.38;;;9.30;99.90;;;;;;5105069;28;20826;-63
2022/05/03 05:47:36;;;;;;;13.93;8.55;;;9.90;99.90;;;;;;5106135;27;21041;-64
2022/05/03 05:50:05;;;;;;;14.35;8.25;;;10.60;99.90;;;;;;5115099;27;20047;-64
2022/05/03 05:55:14;;;;;;;16.40;8.23;;;11.30;99.90;;;;;;5093419;27;19936;-64
2022/05/03 05:57:40;;;;;;;;;;;11.90;99.90;;;;;;5105857;27;20043;-64
2022/05/03 06:00:06;;;;;;;10.20;6.70;;;12.30;99.90;;;;;;5108621;27;20668;-64
2022/05/03 06:02:32;;;;;;;12.02;7.15;;;12.90;99.90;;;;;;5103605;27;20035;-64
2022/05/03 06:04:57;;;;;;;;;;;12.80;99.90;;;;;;5112182;27;20448;-64
2022/05/03 06:07:23;;;;;;;10.85;5.72;;;13.10;99.90;;;;;;5107843;27;20060;-64
2022/05/03 06:09:48;;;;;;;;;;;13.00;99.90;;;;;;5116542;27;20031;-64
2022/05/03 06:12:14;;;;;;;12.70;5.45;;;13.10;99.90;;;;;;5102299;27;19922;-64
2022/05/03 06:14:40;;;;;;;9.85;5.55;;;13.90;99.20;;;;;;5106733;27;20031;-64
2022/05/03 06:17:06;;;;;;;11.10;6.68;;;14.80;96.40;;;;;;5110811;27;20125;-64
2022/05/03 06:19:31;;;;;;;;;;;15.30;95.10;;;;;;5086124;28;20130;-64
2022/05/03 06:21:57;;;;;;;16.17;6.03;;;15.10;94.50;;;;;;5089476;27;19922;-64
2022/05/03 06:24:22;;;;;;;9.95;6.68;;;14.40;93.90;;;;;;5108488;27;20159;-64
2022/05/03 06:26:48;;;;;;;;;;;13.90;95.70;;;;;;5102516;27;20043;-64
2022/05/03 06:29:14;;;;;;;10.10;6.63;;;13.40;96.30;;;;;;5108956;27;19920;-65
2022/05/03 06:31:42;;;;;;;9.82;5.70;;;13.00;96.70;;;;;;5075671;27;20036;-64
2022/05/03 06:34:08;;;;;;;12.05;5.85;;;12.80;96.40;;;;;;5083151;28;20117;-64
2022/05/03 06:36:35;;;;;;;6.53;5.25;;;13.00;97.50;;;;;;5079061;28;20066;-64
2022/05/03 06:39:01;;;;;;;11.32;5.78;;;13.30;95.10;;;;;;5083158;28;20582;-65
2022/05/03 06:41:27;;;;;;;7.72;5.70;;;14.20;95.10;;;;;;5084222;28;20036;-64
2022/05/03 06:43:53;;;;;;;;;;;14.60;92.30;;;;;;5089020;28;20036;-64
2022/05/03 06:46:20;;;;;;;10.38;4.75;;;15.00;91.10;;;;;;5083450;28;20020;-65
2022/05/03 06:48:46;;;;;;;8.18;4.60;;;15.20;90.20;;;;;;5087309;28;20047;-64
2022/05/03 06:51:11;;;;;;;;;;;15.60;91.70;;;;;;5083337;28;20036;-65
2022/05/03 06:53:37;;;;;;;6.22;4.65;;;16.50;90.30;;;;;;5086795;28;19916;-64
2022/05/03 06:56:02;;;;;;;7.18;5.13;;;16.90;88.00;;;;;;5080138;28;20032;-64
2022/05/03 06:58:28;;;;;;;7.20;4.95;;;16.80;86.60;;;;;;5086627;28;20040;-65
2022/05/03 07:00:54;;;;;;;6.63;4.80;;;16.90;89.30;;;;;;5086832;28;20062;-64
2022/05/03 07:03:20;;;;;;;7.07;4.75;;;17.20;84.50;;;;;;5102668;28;20043;-65
2022/05/03 07:05:45;;;;;;;7.60;4.88;;;16.80;83.30;;;;;;5102750;28;20096;-65
2022/05/03 07:08:11;;;;;;;8.07;4.63;;;17.00;86.80;;;;;;5097788;28;20957;-65
2022/05/03 07:10:37;;;;;;;8.15;4.93;;;17.90;81.80;;;;;;5103360;28;20057;-64
2022/05/03 07:13:04;;;;;;;7.15;5.35;;;17.90;79.50;;;;;;5103341;28;20050;-64
2022/05/03 07:15:30;;;;;;;5.47;4.40;;;18.20;79.20;;;;;;5102521;28;20035;-65
2022/05/03 07:23:27;;;;;;;9.07;5.70;;;17.90;78.50;;;;;;5093750;28;20559;-64
2022/05/03 07:25:57;;;;;;;10.60;5.28;;;17.20;79.70;;;;;;5102193;28;20134;-64
2022/05/03 07:28:23;;;;;;;10.68;5.85;;;17.10;78.50;;;;;;5105168;28;20047;-64
2022/05/03 07:30:49;;;;;;;8.85;5.20;;;17.00;77.70;;;;;;5101327;28;20643;-63
2022/05/03 07:33:15;;;;;;;8.85;5.65;;;17.20;79.90;;;;;;5105864;28;20525;-64
2022/05/03 07:35:41;;;;;;;8.98;6.10;;;16.60;81.10;;;;;;5106945;28;20036;-64
2022/05/03 07:38:06;;;;;;;15.27;6.57;;;16.20;81.50;;;;;;5103084;28;20031;-64
2022/05/03 07:40:32;;;;;;;10.07;6.38;;;15.90;82.10;;;;;;5106629;28;20723;-64
2022/05/03 07:42:58;;;;;;;18.70;7.78;;;16.20;85.10;;;;;;5107044;28;20093;-64
2022/05/03 07:45:26;;;;;;;13.20;7.95;;;15.90;85.30;;;;;;5105806;28;20922;-64
2022/05/03 07:47:57;;;;;;;14.35;7.65;;;16.30;87.30;;;;;;5106589;28;20673;-64
2022/05/03 07:50:28;;;;;;;10.75;8.07;;;16.10;84.70;;;;;;5106055;28;20039;-63
2022/05/03 07:52:56;;;;;;;12.15;8.10;;;16.00;83.50;;;;;;5106404;28;20126;-64
2022/05/03 07:55:27;;;;;;;11.63;8.00;;;16.30;87.30;;;;;;5104999;28;20443;-64
2022/05/03 07:58:05;;;;;;;10.70;8.23;;;16.50;83.30;;;;;;5105949;28;20562;-64
2022/05/03 08:00:32;;;;;;;11.75;7.90;;;16.60;86.70;;;;;;5094061;28;20387;-64
2022/05/03 08:03:04;;;;;;;11.15;7.60;;;17.70;84.10;;;;;;5104952;28;20046;-64
2022/05/03 08:05:33;;;;;;;13.40;8.50;;;18.40;78.70;;;;;;5106770;28;20051;-64
2022/05/03 08:07:58;;;;;;;12.02;8.27;;;18.40;78.60;;;;;;5102736;28;20023;-65
2022/05/03 08:10:24;;;;;;;10.05;7.32;;;18.00;80.30;;;;;;5106876;28;20063;-65
2022/05/03 08:12:58;;;;;;;16.85;8.80;;;17.80;78.90;;;;;;5106349;28;20082;-64
2022/05/03 08:15:27;;;;;;;17.23;8.07;;;17.30;81.20;;;;;;5106352;28;20131;-64
2022/05/03 08:18:00;;;;;;;9.30;6.97;;;16.70;81.40;;;;;;5106403;28;20119;-64
2022/05/03 08:20:29;;;;;;;10.20;7.72;;;17.00;81.60;;;;;;5106620;28;20035;-64
2022/05/03 08:23:01;;;;;;;14.68;8.13;;;17.00;83.70;;;;;;5106651;28;20075;-65
2022/05/03 08:25:29;;;;;;;11.70;7.72;;;17.90;80.50;;;;;;5106899;28;20145;-64
2022/05/03 08:28:01;;;;;;;12.00;6.85;;;18.70;77.90;;;;;;5105659;28;20542;-65
2022/05/03 08:30:30;;;;;;;18.25;8.85;;;19.70;76.50;;;;;;5096181;27;20031;-64
2022/05/03 08:32:56;;;;;;;18.33;9.13;;;20.10;74.90;;;;;;5101803;28;20036;-64
2022/05/03 08:35:24;;;;;;;11.77;7.97;;;19.50;74.60;;;;;;5102522;28;20043;-65
2022/05/03 08:43:18;;;;;;;20.17;8.70;;;18.40;76.80;;;;;;5057557;28;20051;-64
2022/05/03 08:45:50;;;;;;;20.13;8.90;;;17.60;78.80;;;;;;5068904;28;20040;-67
2022/05/03 08:48:23;;;;;;;17.33;8.80;;;17.30;82.00;;;;;;5053949;28;20037;-64
2022/05/03 08:50:55;;;;;;;14.15;8.60;;;17.20;81.80;;;;;;5045849;28;20039;-65
2022/05/03 08:53:21;;;;;;;13.38;9.05;;;17.30;79.70;;;;;;5045328;28;20524;-64
2022/05/03 08:55:47;;;;;;;;;;;16.80;78.50;;;;;;5050249;28;20108;-64
2022/05/03 08:58:17;;;;;;;13.63;9.07;;;16.50;80.50;;;;;;5045427;28;20005;-65
2022/05/03 09:00:42;;;;;;;16.80;10.27;;;16.50;82.60;;;;;;5048236;28;20102;-64
2022/05/03 09:03:09;;;;;;;;;;;16.30;82.20;;;;;;5051672;28;20119;-63
2022/05/03 09:05:35;;;;;;;27.50;10.77;;;16.30;80.90;;;;;;5050095;28;19912;-64
2022/05/03 09:08:04;;;;;;;17.88;9.98;;;15.90;87.00;;;;;;5053791;28;20057;-63
2022/05/03 09:10:31;;;;;;;13.88;10.50;;;15.30;83.60;;;;;;5049164;28;20028;-64
2022/05/03 09:13:12;;;;;;;18.67;11.02;;;15.10;87.80;;;;;;5049877;28;20452;-63
2022/05/03 09:15:38;;;;;;;18.17;10.45;;;15.20;85.80;;;;;;5049319;28;20603;-64
2022/05/03 09:18:04;;;;;;;;;;;15.00;85.00;;;;;;5053468;28;20033;-64
2022/05/03 09:26:24;;;;;;;15.07;9.27;;;15.50;85.70;;;;;;5054038;28;20037;-64
2022/05/03 09:28:50;;;;;;;12.95;9.68;;;15.70;89.60;;;;;;5047672;23;20766;-79
2022/05/03 09:31:42;;;;;;;17.83;9.55;;;16.00;90.60;;;;;;5042011;28;20068;-77
2022/05/03 09:34:18;;;;;;;17.67;10.60;;;16.00;86.40;;;;;;5051132;28;20086;-76
2022/05/03 09:36:46;;;;;;;22.85;10.63;;;15.60;84.90;;;;;;5066611;28;20045;-78
2022/05/03 09:39:29;;;;;;;14.13;9.45;;;15.20;86.10;;;;;;5048254;28;20044;-77
2022/05/03 09:42:18;;;;;;;17.20;11.13;;;15.20;88.90;;;;;;5053840;28;20160;-77
2022/05/03 09:44:51;;;;;;;17.45;10.68;;;15.10;86.40;;;;;;5053279;28;20037;-78
2022/05/03 09:47:19;;;;;;;16.35;9.60;;;14.70;90.00;;;;;;5044520;28;20114;-77
2022/05/03 09:49:45;;;;;;;13.93;9.90;;;14.90;87.10;;;;;;5046871;28;20041;-77
2022/05/03 09:52:27;;;;;;;;;;;15.50;89.70;;;;;;5047397;28;20039;-77
2022/05/03 09:54:59;;;;;;;19.08;10.55;;;15.70;89.10;;;;;;5047936;28;20851;-78
2022/05/03 09:57:28;;;;;;;25.13;9.60;;;15.80;87.70;;;;;;5045951;28;20657;-77
2022/05/03 09:59:55;;;;;;;17.00;10.68;;;16.00;86.70;;;;;;5046230;28;20500;-78
2022/05/03 10:02:26;;;;;;;16.88;10.57;;;16.10;87.60;;;;;;5045954;28;20076;-78
2022/05/03 10:04:56;;;;;;;16.55;10.88;;;15.80;85.70;;;;;;5047334;28;20069;-79
2022/05/03 10:07:29;;;;;;;21.10;10.82;;;15.80;85.00;;;;;;5046962;28;20067;-77
2022/05/03 10:09:55;;;;;;;13.60;9.57;;;15.90;84.40;;;;;;5048166;28;20037;-77
2022/05/03 10:12:21;;;;;;;20.92;10.95;;;16.20;84.40;;;;;;5046073;28;20028;-77
2022/05/03 10:14:47;;;;;;;;;;;16.10;83.60;;;;;;5048120;28;20128;-77
2022/05/03 10:22:54;;;;;;;18.70;9.35;;;16.00;85.00;;;;;;5047088;28;20044;-79
2022/05/03 10:25:42;;;;;;;;;;;16.20;84.70;;;;;;5046592;28;20090;-78
2022/05/03 10:28:08;;;;;;;15.38;9.40;;;16.50;84.10;;;;;;5033471;28;20375;-77
2022/05/03 10:30:38;;;;;;;;;;;16.40;84.60;;;;;;5027933;28;20133;-77
2022/05/03 10:33:28;;;;;;;15.77;9.88;;;16.60;83.10;;;;;;5038499;28;20012;-79
2022/05/03 10:35:54;;;;;;;15.10;8.48;;;16.40;79.10;;;;;;5039144;28;20044;-77
2022/05/03 10:38:39;;;;;;;;;;;16.50;84.60;;;;;;5037850;28;20108;-77
2022/05/03 10:41:09;;;;;;;18.50;9.05;;;16.20;80.30;;;;;;5045203;28;19917;-79
2022/05/03 10:43:37;;;;;;;12.90;9.05;;;16.10;80.90;;;;;;5044609;28;20098;-78
2022/05/03 10:46:12;;;;;;;15.82;9.30;;;15.90;80.90;;;;;;5049092;28;20052;-78
2022/05/03 10:48:41;;;;;;;17.38;9.25;;;16.10;83.30;;;;;;5050052;28;20037;-79
2022/05/03 10:51:10;;;;;;;17.58;9.82;;;16.20;80.30;;;;;;5054300;28;20039;-79
2022/05/03 10:53:41;;;;;;;13.68;9.32;;;16.20;84.80;;;;;;5046128;28;20051;-78
2022/05/03 10:56:16;;;;;;;20.55;9.15;;;16.30;87.40;;;;;;5029190;28;20453;-78
2022/05/03 10:58:45;;;;;;;18.20;8.75;;;16.20;79.20;;;;;;5040519;28;20062;-79
2022/05/03 11:01:19;;;;;;;13.85;7.75;;;16.30;84.00;;;;;;5043640;28;20039;-79
2022/05/03 11:03:54;;;;;;;18.50;9.20;;;16.30;83.70;;;;;;5045448;28;20040;-78
2022/05/03 11:06:22;;;;;;;13.77;9.20;;;16.20;80.50;;;;;;5050196;28;20048;-78
2022/05/03 11:11:37;;;;;;;15.27;9.57;;;16.00;84.00;;;;;;5046879;28;20045;-77
2022/05/03 11:14:16;;;;;;;17.35;10.13;;;16.10;83.20;;;;;;5045296;28;20033;-77
2022/05/03 11:16:49;;;;;;;18.40;8.10;;;15.90;83.80;;;;;;5045723;28;20069;-79
2022/05/03 11:19:17;;;;;;;14.55;8.35;;;16.30;85.40;;;;;;5045629;28;20049;-78
2022/05/03 11:21:47;;;;;;;14.85;9.43;;;16.30;81.90;;;;;;5045976;28;20045;-79
2022/05/03 11:24:24;;;;;;;12.07;8.48;;;16.00;87.80;;;;;;5050229;28;20077;-77
2022/05/03 11:26:56;;;;;;;15.18;9.05;;;16.30;83.80;;;;;;5048250;28;20053;-78
2022/05/03 11:29:45;;;;;;;14.05;9.02;;;16.10;79.50;;;;;;5046726;28;20448;-77
2022/05/03 11:32:14;;;;;;;14.85;8.85;;;16.30;80.60;;;;;;5034649;28;20035;-79
2022/05/03 11:34:44;;;;;;;13.98;9.55;;;16.60;84.20;;;;;;5039589;28;20044;-78
2022/05/03 11:37:10;;;;;;;11.18;8.40;;;16.60;78.40;;;;;;5044102;28;20382;-78
2022/05/03 11:39:36;;;;;;;;;;;16.90;80.00;;;;;;5044160;28;20128;-77
2022/05/03 11:42:09;;;;;;;19.80;9.97;;;16.90;83.30;;;;;;5040555;28;19916;-77
2022/05/03 11:44:41;;;;;;;15.38;10.30;;;16.60;80.60;;;;;;5037848;28;20061;-79
2022/05/03 11:47:10;;;;;;;16.55;9.80;;;16.20;83.40;;;;;;5044813;28;20044;-78
2022/05/03 11:49:36;;;;;;;14.00;9.38;;;16.20;83.10;;;;;;5036478;28;20029;-78
2022/05/03 11:57:40;;;;;;;13.32;9.10;;;16.40;85.00;;;;;;5038550;28;20044;-78
2022/05/03 12:00:11;;;;;;;15.52;9.32;;;16.20;82.50;;;;;;5042652;28;20048;-78
2022/05/03 12:02:46;;;;;;;14.02;9.55;;;16.00;81.80;;;;;;5039155;28;20049;-78
2022/05/03 12:05:18;;;;;;;19.17;8.48;;;15.80;85.20;;;;;;5038528;28;20059;-77
2022/05/03 12:07:47;;;;;;;17.15;11.00;;;15.80;85.10;;;;;;5041914;28;20125;-77
2022/05/03 12:10:20;;;;;;;15.82;9.98;;;15.60;81.70;;;;;;5043802;28;20039;-78
2022/05/03 12:13:16;;;;;;;16.05;9.82;;;15.60;83.60;;;;;;5041522;28;20048;-78
2022/05/03 12:15:45;;;;;;;16.60;9.77;;;15.70;83.50;;;;;;5048189;28;20033;-79
2022/05/03 12:18:25;;;;;;;17.45;10.20;;;15.90;82.70;;;;;;5037536;28;20049;-77
2022/05/03 12:20:56;;;;;;;13.52;9.13;;;16.20;86.50;;;;;;5046623;28;20040;-77
2022/05/03 12:23:33;;;;;;;22.00;10.68;;;16.40;84.60;;;;;;5041863;28;20048;-77
2022/05/03 12:25:59;;;;;;;;;;;16.50;78.60;;;;;;5047331;28;20045;-78
2022/05/03 12:28:35;;;;;;;;;;;16.50;85.40;;;;;;5047019;28;19955;-79
2022/05/03 12:31:02;;;;;;;;;;;16.50;84.90;;;;;;5046895;28;19917;-78
2022/05/03 12:33:28;;;;;;;;;;;16.30;81.00;;;;;;5047132;28;20007;-79
2022/05/03 12:35:53;;;;;;;;;;;16.30;84.50;;;;;;5047731;28;20015;-78
2022/05/03 12:38:21;;;;;;;;;;;16.20;84.90;;;;;;5046292;28;20003;-77
2022/05/03 12:40:56;;;;;;;;;;;16.10;84.30;;;;;;5046837;28;19979;-78
2022/05/03 12:43:23;;;;;;;;;;;16.00;88.40;;;;;;5047316;28;19917;-78
2022/05/03 12:45:59;;;;;;;;;;;15.90;83.90;;;;;;5047083;28;19916;-78
2022/05/03 12:48:25;;;;;;;;;;;15.80;81.70;;;;;;5046919;28;19920;-77
2022/05/03 12:50:50;;;;;;;;;;;15.60;82.30;;;;;;5046955;28;19970;-78
2022/05/03 12:53:16;;;;;;;;;;;15.70;83.70;;;;;;5048021;28;20016;-77
2022/05/03 12:55:41;;;;;;;;;;;15.80;83.70;;;;;;5046735;28;20343;-78
2022/05/03 12:58:24;;;;;;;;;;;16.10;83.10;;;;;;5048371;28;20504;-78
2022/05/03 13:00:51;;;;;;;;;;;16.00;82.60;;;;;;5047640;28;20364;-78
2022/05/03 13:03:17;;;;;;;;;;;15.80;84.50;;;;;;5052866;28;20462;-78
2022/05/03 13:05:43;;;;;;;;;;;15.90;85.00;;;;;;5056937;28;19921;-78
2022/05/03 13:08:10;;;;;;;;;;;15.70;86.20;;;;;;5065328;28;20469;-79
2022/05/03 13:10:37;;;;;;;;;;;15.70;83.20;;;;;;5049476;28;19920;-78
2022/05/03 13:13:03;;;;;;;;;;;15.60;85.40;;;;;;5049177;28;19924;-78
2022/05/03 13:15:30;;;;;;;;;;;15.60;86.90;;;;;;5047850;28;19970;-79
2022/05/03 13:17:56;;;;;;;;;;;15.60;84.40;;;;;;5047144;28;20043;-79
2022/05/03 13:20:21;;;;;;;;;;;15.40;83.80;;;;;;5046929;28;19921;-78
2022/05/03 13:22:47;;;;;;;;;;;15.40;86.00;;;;;;5047014;28;19917;-77
2022/05/03 13:25:13;;;;;;;;;;;15.60;83.20;;;;;;5047017;28;20349;-79
2022/05/03 13:27:38;;;;;;;;;;;15.70;86.90;;;;;;5047128;28;20628;-77
2022/05/03 13:30:04;;;;;;;;;;;15.90;89.20;;;;;;5046143;28;19923;-77
2022/05/03 13:32:30;;;;;;;;;;;16.00;83.90;;;;;;5044241;28;20011;-78
2022/05/03 13:34:57;;;;;;;;;;;16.00;85.30;;;;;;5045525;28;19920;-77
2022/05/03 13:42:52;;;;;;;;;;;15.90;82.00;;;;;;5047279;28;19927;-78
2022/05/03 13:45:17;;;;;;;;;;;16.00;86.00;;;;;;5047084;28;19917;-77
2022/05/03 13:47:43;;;;;;;;;;;16.10;82.40;;;;;;5046351;28;20482;-78
2022/05/03 13:50:10;;;;;;;;;;;16.50;83.30;;;;;;5046583;28;19920;-78
2022/05/03 13:52:36;;;;;;;;;;;16.40;82.80;;;;;;5046638;28;19916;-78
2022/05/03 13:55:03;;;;;;;;;;;16.50;84.60;;;;;;5042179;28;19924;-78
2022/05/03 13:57:29;;;;;;;;;;;16.50;82.40;;;;;;5047174;28;20348;-78
2022/05/03 13:59:56;;;;;;;;;;;16.60;81.50;;;;;;5046913;28;19917;-78